sensor_id;sensor_type;location;lat;lon;timestamp;temperature;humidity
24162;DHT22;12318;51.262;7.066;2023-05-10T00:01:18;13.70;99.90
24162;DHT22;12318;51.262;7.066;2023-05-10T00:03:44;13.70;99.90
24162;DHT22;12318;51.262;7.066;2023-05-10T00:06:10;13.80;99.90
24162;DHT22;12318;51.262;7.066;2023-05-10T00:08:36;13.80;99.90
24162;DHT22;12318;51.262;7.066;2023-05-10T00:11:01;13.80;99.90
24162;DHT22;12318;51.262;7.066;2023-05-10T00:13:31;13.80;99.90
24162;DHT22;12318;51.262;7.066;2023-05-10T00:15:59;13.80;99.90
24162;DHT22;12318;51.262;7.066;2023-05-10T00:18:25;13.80;99.90
24162;DHT22;12318;51.262;7.066;2023-05-10T00:20:51;13.80;99.90
24162;DHT22;12318;51.262;7.066;2023-05-10T00:23:19;13.70;99.90
24162;DHT22;12318;51.262;7.066;2023-05-10T00:25:45;13.70;99.90
24162;DHT22;12318;51.262;7.066;2023-05-10T00:28:11;13.70;99.90
24162;DHT22;12318;51.262;7.066;2023-05-10T00:30:40;13.80;99.90
24162;DHT22;12318;51.262;7.066;2023-05-10T00:33:05;13.70;99.90
24162;DHT22;12318;51.262;7.066;2023-05-10T00:35:31;13.80;99.90
24162;DHT22;12318;51.262;7.066;2023-05-10T00:38:00;13.70;99.90
24162;DHT22;12318;51.262;7.066;2023-05-10T00:40:26;13.80;99.90
24162;DHT22;12318;51.262;7.066;2023-05-10T00:42:56;13.80;99.90
24162;DHT22;12318;51.262;7.066;2023-05-10T00:45:26;13.80;99.90
24162;DHT22;12318;51.262;7.066;2023-05-10T00:47:55;13.70;99.90
24162;DHT22;12318;51.262;7.066;2023-05-10T00:50:24;13.80;99.90
24162;DHT22;12318;51.262;7.066;2023-05-10T00:52:50;13.80;99.90
24162;DHT22;12318;51.262;7.066;2023-05-10T00:55:16;13.80;99.90
24162;DHT22;12318;51.262;7.066;2023-05-10T00:57:42;13.80;99.90
24162;DHT22;12318;51.262;7.066;2023-05-10T01:00:09;13.80;99.90
24162;DHT22;12318;51.262;7.066;2023-05-10T01:02:35;13.80;99.90
24162;DHT22;12318;51.262;7.066;2023-05-10T01:05:02;13.90;99.90
24162;DHT22;12318;51.262;7.066;2023-05-10T01:07:29;13.90;99.90
24162;DHT22;12318;51.262;7.066;2023-05-10T01:09:55;13.80;99.90
24162;DHT22;12318;51.262;7.066;2023-05-10T01:12:22;13.90;99.90
24162;DHT22;12318;51.262;7.066;2023-05-10T01:14:51;13.80;99.90
24162;DHT22;12318;51.262;7.066;2023-05-10T01:17:20;13.70;99.90
24162;DHT22;12318;51.262;7.066;2023-05-10T01:19:50;13.70;99.90
24162;DHT22;12318;51.262;7.066;2023-05-10T01:27:56;13.60;99.90
24162;DHT22;12318;51.262;7.066;2023-05-10T01:35:55;13.70;99.90
24162;DHT22;12318;51.262;7.066;2023-05-10T01:44:09;13.60;99.90
24162;DHT22;12318;51.262;7.066;2023-05-10T01:46:41;13.60;99.90
24162;DHT22;12318;51.262;7.066;2023-05-10T01:49:13;13.50;99.90
24162;DHT22;12318;51.262;7.066;2023-05-10T01:51:45;13.50;99.90
24162;DHT22;12318;51.262;7.066;2023-05-10T01:54:13;13.40;99.90
24162;DHT22;12318;51.262;7.066;2023-05-10T01:56:40;13.40;99.90
24162;DHT22;12318;51.262;7.066;2023-05-10T01:59:12;13.40;99.90
24162;DHT22;12318;51.262;7.066;2023-05-10T02:01:40;13.40;99.90
24162;DHT22;12318;51.262;7.066;2023-05-10T02:04:07;13.30;99.90
24162;DHT22;12318;51.262;7.066;2023-05-10T02:06:41;13.30;99.90
24162;DHT22;12318;51.262;7.066;2023-05-10T02:09:11;13.40;99.90
24162;DHT22;12318;51.262;7.066;2023-05-10T02:11:42;13.30;99.90
24162;DHT22;12318;51.262;7.066;2023-05-10T02:14:10;13.30;99.90
24162;DHT22;12318;51.262;7.066;2023-05-10T02:16:40;13.30;99.90
24162;DHT22;12318;51.262;7.066;2023-05-10T02:19:10;13.30;99.90
24162;DHT22;12318;51.262;7.066;2023-05-10T02:21:39;13.30;99.90
24162;DHT22;12318;51.262;7.066;2023-05-10T02:24:06;13.30;99.90
24162;DHT22;12318;51.262;7.066;2023-05-10T02:26:34;13.40;99.90
24162;DHT22;12318;51.262;7.066;2023-05-10T02:29:03;13.40;99.90
24162;DHT22;12318;51.262;7.066;2023-05-10T02:31:31;13.30;99.90
24162;DHT22;12318;51.262;7.066;2023-05-10T02:33:58;13.10;99.90
24162;DHT22;12318;51.262;7.066;2023-05-10T02:36:24;13.10;99.90
24162;DHT22;12318;51.262;7.066;2023-05-10T02:38:53;13.10;99.90
24162;DHT22;12318;51.262;7.066;2023-05-10T02:41:22;13.10;99.90
24162;DHT22;12318;51.262;7.066;2023-05-10T02:43:51;13.10;99.90
24162;DHT22;12318;51.262;7.066;2023-05-10T02:46:19;13.10;99.90
24162;DHT22;12318;51.262;7.066;2023-05-10T02:48:45;13.10;99.90
24162;DHT22;12318;51.262;7.066;2023-05-10T02:51:12;13.10;99.90
24162;DHT22;12318;51.262;7.066;2023-05-10T02:53:41;13.10;99.90
24162;DHT22;12318;51.262;7.066;2023-05-10T02:56:20;13.20;99.90
24162;DHT22;12318;51.262;7.066;2023-05-10T02:58:49;13.10;99.90
24162;DHT22;12318;51.262;7.066;2023-05-10T03:01:14;13.20;99.90
24162;DHT22;12318;51.262;7.066;2023-05-10T03:03:41;13.20;99.90
24162;DHT22;12318;51.262;7.066;2023-05-10T03:06:07;13.20;99.90
24162;DHT22;12318;51.262;7.066;2023-05-10T03:08:33;13.20;99.90
24162;DHT22;12318;51.262;7.066;2023-05-10T03:14:57;13.20;99.90
24162;DHT22;12318;51.262;7.066;2023-05-10T03:17:06;13.30;99.90
24162;DHT22;12318;51.262;7.066;2023-05-10T03:19:47;13.30;99.90
24162;DHT22;12318;51.262;7.066;2023-05-10T03:22:21;13.40;99.90
24162;DHT22;12318;51.262;7.066;2023-05-10T03:24:49;13.50;99.90
24162;DHT22;12318;51.262;7.066;2023-05-10T03:27:16;13.50;99.90
24162;DHT22;12318;51.262;7.066;2023-05-10T03:29:43;13.40;99.90
24162;DHT22;12318;51.262;7.066;2023-05-10T03:32:11;13.50;99.90
24162;DHT22;12318;51.262;7.066;2023-05-10T03:34:41;13.40;99.90
24162;DHT22;12318;51.262;7.066;2023-05-10T03:37:10;13.40;99.90
24162;DHT22;12318;51.262;7.066;2023-05-10T03:39:35;13.40;99.90
24162;DHT22;12318;51.262;7.066;2023-05-10T03:42:01;13.40;99.90
24162;DHT22;12318;51.262;7.066;2023-05-10T03:44:27;13.40;99.90
24162;DHT22;12318;51.262;7.066;2023-05-10T03:46:53;13.40;99.90
24162;DHT22;12318;51.262;7.066;2023-05-10T03:49:19;13.40;99.90
24162;DHT22;12318;51.262;7.066;2023-05-10T03:51:44;13.40;99.90
24162;DHT22;12318;51.262;7.066;2023-05-10T03:54:10;13.40;99.90
24162;DHT22;12318;51.262;7.066;2023-05-10T03:56:36;13.50;99.90
24162;DHT22;12318;51.262;7.066;2023-05-10T03:59:02;13.50;99.90
24162;DHT22;12318;51.262;7.066;2023-05-10T04:01:33;13.60;99.90
24162;DHT22;12318;51.262;7.066;2023-05-10T04:03:59;13.50;99.90
24162;DHT22;12318;51.262;7.066;2023-05-10T04:06:25;13.40;99.90
24162;DHT22;12318;51.262;7.066;2023-05-10T04:08:50;13.40;99.90
24162;DHT22;12318;51.262;7.066;2023-05-10T04:11:16;13.40;99.90
24162;DHT22;12318;51.262;7.066;2023-05-10T04:13:42;13.50;99.90
24162;DHT22;12318;51.262;7.066;2023-05-10T04:16:08;13.50;99.90
24162;DHT22;12318;51.262;7.066;2023-05-10T04:18:34;13.50;99.90
24162;DHT22;12318;51.262;7.066;2023-05-10T04:21:00;13.50;99.90
24162;DHT22;12318;51.262;7.066;2023-05-10T04:23:27;13.60;99.90
24162;DHT22;12318;51.262;7.066;2023-05-10T04:25:59;13.60;99.90
24162;DHT22;12318;51.262;7.066;2023-05-10T04:28:25;13.50;99.90
24162;DHT22;12318;51.262;7.066;2023-05-10T04:30:51;13.50;99.90
24162;DHT22;12318;51.262;7.066;2023-05-10T04:33:16;13.60;99.90
24162;DHT22;12318;51.262;7.066;2023-05-10T04:35:42;13.50;99.90
24162;DHT22;12318;51.262;7.066;2023-05-10T04:38:08;13.60;99.90
24162;DHT22;12318;51.262;7.066;2023-05-10T04:40:33;13.60;99.90
24162;DHT22;12318;51.262;7.066;2023-05-10T04:42:59;13.50;99.90
24162;DHT22;12318;51.262;7.066;2023-05-10T04:45:25;13.60;99.90
24162;DHT22;12318;51.262;7.066;2023-05-10T04:47:51;13.60;99.90
24162;DHT22;12318;51.262;7.066;2023-05-10T04:50:17;13.50;99.90
24162;DHT22;12318;51.262;7.066;2023-05-10T04:52:42;13.50;99.90
24162;DHT22;12318;51.262;7.066;2023-05-10T04:55:08;13.50;99.90
24162;DHT22;12318;51.262;7.066;2023-05-10T04:57:35;13.60;99.90
24162;DHT22;12318;51.262;7.066;2023-05-10T05:00:01;13.70;99.90
24162;DHT22;12318;51.262;7.066;2023-05-10T05:02:27;13.80;99.90
24162;DHT22;12318;51.262;7.066;2023-05-10T05:04:53;13.80;99.90
24162;DHT22;12318;51.262;7.066;2023-05-10T05:07:18;13.70;99.90
24162;DHT22;12318;51.262;7.066;2023-05-10T05:09:44;13.70;99.90
24162;DHT22;12318;51.262;7.066;2023-05-10T05:12:10;13.80;99.90
24162;DHT22;12318;51.262;7.066;2023-05-10T05:14:39;13.80;99.90
24162;DHT22;12318;51.262;7.066;2023-05-10T05:17:05;13.80;99.90
24162;DHT22;12318;51.262;7.066;2023-05-10T05:19:31;13.70;99.90
24162;DHT22;12318;51.262;7.066;2023-05-10T05:21:57;13.70;99.90
24162;DHT22;12318;51.262;7.066;2023-05-10T05:24:22;13.70;99.90
24162;DHT22;12318;51.262;7.066;2023-05-10T05:26:54;13.70;99.90
24162;DHT22;12318;51.262;7.066;2023-05-10T05:29:20;13.70;99.90
24162;DHT22;12318;51.262;7.066;2023-05-10T05:31:46;13.60;99.90
24162;DHT22;12318;51.262;7.066;2023-05-10T05:34:11;13.60;99.90
24162;DHT22;12318;51.262;7.066;2023-05-10T05:36:37;13.70;99.90
24162;DHT22;12318;51.262;7.066;2023-05-10T05:39:06;13.60;99.90
24162;DHT22;12318;51.262;7.066;2023-05-10T05:41:31;13.60;99.90
24162;DHT22;12318;51.262;7.066;2023-05-10T05:43:57;13.70;99.90
24162;DHT22;12318;51.262;7.066;2023-05-10T05:46:23;13.70;99.90
24162;DHT22;12318;51.262;7.066;2023-05-10T05:48:49;13.70;99.90
24162;DHT22;12318;51.262;7.066;2023-05-10T05:51:14;13.70;99.90
24162;DHT22;12318;51.262;7.066;2023-05-10T05:53:40;13.80;99.90
24162;DHT22;12318;51.262;7.066;2023-05-10T05:56:07;13.80;99.90
24162;DHT22;12318;51.262;7.066;2023-05-10T05:58:33;13.70;99.90
24162;DHT22;12318;51.262;7.066;2023-05-10T06:00:59;13.80;99.90
24162;DHT22;12318;51.262;7.066;2023-05-10T06:03:25;13.90;99.90
24162;DHT22;12318;51.262;7.066;2023-05-10T06:05:50;14.00;99.90
24162;DHT22;12318;51.262;7.066;2023-05-10T06:08:19;14.00;99.90
24162;DHT22;12318;51.262;7.066;2023-05-10T06:17:26;14.00;99.90
24162;DHT22;12318;51.262;7.066;2023-05-10T06:31:55;13.90;99.90
24162;DHT22;12318;51.262;7.066;2023-05-10T06:34:45;14.00;99.90
24162;DHT22;12318;51.262;7.066;2023-05-10T06:37:27;14.00;99.90
24162;DHT22;12318;51.262;7.066;2023-05-10T06:39:53;14.10;99.90
24162;DHT22;12318;51.262;7.066;2023-05-10T06:42:18;13.90;99.90
24162;DHT22;12318;51.262;7.066;2023-05-10T06:44:44;13.90;99.90
24162;DHT22;12318;51.262;7.066;2023-05-10T06:47:16;14.00;99.90
24162;DHT22;12318;51.262;7.066;2023-05-10T06:49:42;13.90;99.90
24162;DHT22;12318;51.262;7.066;2023-05-10T06:52:25;13.90;99.90
24162;DHT22;12318;51.262;7.066;2023-05-10T06:54:50;13.90;99.90
24162;DHT22;12318;51.262;7.066;2023-05-10T06:57:19;13.90;99.90
24162;DHT22;12318;51.262;7.066;2023-05-10T06:59:46;13.70;99.90
24162;DHT22;12318;51.262;7.066;2023-05-10T07:02:14;13.70;99.90
24162;DHT22;12318;51.262;7.066;2023-05-10T07:04:40;13.80;99.90
24162;DHT22;12318;51.262;7.066;2023-05-10T07:07:08;13.80;99.90
24162;DHT22;12318;51.262;7.066;2023-05-10T07:09:34;13.90;99.90
24162;DHT22;12318;51.262;7.066;2023-05-10T07:12:03;13.90;99.90
24162;DHT22;12318;51.262;7.066;2023-05-10T07:14:28;13.90;99.90
24162;DHT22;12318;51.262;7.066;2023-05-10T07:16:55;13.80;99.90
24162;DHT22;12318;51.262;7.066;2023-05-10T07:19:21;13.70;99.90
24162;DHT22;12318;51.262;7.066;2023-05-10T07:21:49;13.80;99.90
24162;DHT22;12318;51.262;7.066;2023-05-10T07:24:15;13.70;99.90
24162;DHT22;12318;51.262;7.066;2023-05-10T07:26:41;13.70;99.90
24162;DHT22;12318;51.262;7.066;2023-05-10T07:29:07;13.70;99.90
24162;DHT22;12318;51.262;7.066;2023-05-10T07:31:33;13.80;99.90
24162;DHT22;12318;51.262;7.066;2023-05-10T07:33:58;13.90;99.90
24162;DHT22;12318;51.262;7.066;2023-05-10T07:36:24;13.70;99.90
24162;DHT22;12318;51.262;7.066;2023-05-10T07:38:50;13.80;99.90
24162;DHT22;12318;51.262;7.066;2023-05-10T07:41:16;13.70;99.90
24162;DHT22;12318;51.262;7.066;2023-05-10T07:43:42;13.70;99.90
24162;DHT22;12318;51.262;7.066;2023-05-10T07:46:08;13.90;99.90
24162;DHT22;12318;51.262;7.066;2023-05-10T07:48:38;14.30;99.90
24162;DHT22;12318;51.262;7.066;2023-05-10T07:51:10;14.60;99.90
24162;DHT22;12318;51.262;7.066;2023-05-10T07:53:43;14.60;99.90
24162;DHT22;12318;51.262;7.066;2023-05-10T07:56:28;14.50;99.90
24162;DHT22;12318;51.262;7.066;2023-05-10T07:59:03;14.40;99.90
24162;DHT22;12318;51.262;7.066;2023-05-10T08:01:37;14.30;99.90
24162;DHT22;12318;51.262;7.066;2023-05-10T08:04:03;14.30;99.90
24162;DHT22;12318;51.262;7.066;2023-05-10T08:06:31;14.10;99.90
24162;DHT22;12318;51.262;7.066;2023-05-10T08:09:04;14.20;99.90
24162;DHT22;12318;51.262;7.066;2023-05-10T08:11:33;14.20;99.90
24162;DHT22;12318;51.262;7.066;2023-05-10T08:13:59;14.30;99.90
24162;DHT22;12318;51.262;7.066;2023-05-10T08:16:27;14.30;99.90
24162;DHT22;12318;51.262;7.066;2023-05-10T08:18:56;14.30;99.90
24162;DHT22;12318;51.262;7.066;2023-05-10T08:21:29;14.50;99.90
24162;DHT22;12318;51.262;7.066;2023-05-10T08:23:56;14.60;99.90
24162;DHT22;12318;51.262;7.066;2023-05-10T08:26:23;14.60;99.90
24162;DHT22;12318;51.262;7.066;2023-05-10T08:28:49;14.60;99.90
24162;DHT22;12318;51.262;7.066;2023-05-10T08:31:15;14.60;99.90
24162;DHT22;12318;51.262;7.066;2023-05-10T08:33:41;14.70;99.90
24162;DHT22;12318;51.262;7.066;2023-05-10T08:36:07;14.70;99.90
24162;DHT22;12318;51.262;7.066;2023-05-10T08:38:32;14.70;99.90
24162;DHT22;12318;51.262;7.066;2023-05-10T08:40:58;14.80;99.90
24162;DHT22;12318;51.262;7.066;2023-05-10T08:43:34;14.90;99.90
24162;DHT22;12318;51.262;7.066;2023-05-10T08:46:05;15.00;99.90
24162;DHT22;12318;51.262;7.066;2023-05-10T08:48:34;15.10;99.90
24162;DHT22;12318;51.262;7.066;2023-05-10T08:51:02;14.90;99.90
24162;DHT22;12318;51.262;7.066;2023-05-10T08:53:31;15.00;99.90
24162;DHT22;12318;51.262;7.066;2023-05-10T08:55:58;14.90;99.90
24162;DHT22;12318;51.262;7.066;2023-05-10T08:58:25;14.90;99.90
24162;DHT22;12318;51.262;7.066;2023-05-10T09:00:59;14.90;99.90
24162;DHT22;12318;51.262;7.066;2023-05-10T09:03:30;14.90;99.90
24162;DHT22;12318;51.262;7.066;2023-05-10T09:05:59;14.90;99.90
24162;DHT22;12318;51.262;7.066;2023-05-10T09:08:28;14.90;99.90
24162;DHT22;12318;51.262;7.066;2023-05-10T09:10:56;14.70;99.90
24162;DHT22;12318;51.262;7.066;2023-05-10T09:13:23;14.70;99.90
24162;DHT22;12318;51.262;7.066;2023-05-10T09:15:50;15.00;99.90
24162;DHT22;12318;51.262;7.066;2023-05-10T09:18:25;15.00;99.90
24162;DHT22;12318;51.262;7.066;2023-05-10T09:20:51;15.00;99.90
24162;DHT22;12318;51.262;7.066;2023-05-10T09:23:17;15.20;99.90
24162;DHT22;12318;51.262;7.066;2023-05-10T09:25:42;15.20;99.90
24162;DHT22;12318;51.262;7.066;2023-05-10T09:28:12;15.30;99.90
24162;DHT22;12318;51.262;7.066;2023-05-10T09:30:38;15.20;99.90
24162;DHT22;12318;51.262;7.066;2023-05-10T09:33:08;15.20;99.90
24162;DHT22;12318;51.262;7.066;2023-05-10T09:35:34;15.30;99.90
24162;DHT22;12318;51.262;7.066;2023-05-10T09:38:02;15.40;99.90
24162;DHT22;12318;51.262;7.066;2023-05-10T09:40:31;15.30;99.90
24162;DHT22;12318;51.262;7.066;2023-05-10T09:43:46;15.40;99.90
24162;DHT22;12318;51.262;7.066;2023-05-10T09:45:48;15.30;99.90
24162;DHT22;12318;51.262;7.066;2023-05-10T09:48:17;15.20;99.90
24162;DHT22;12318;51.262;7.066;2023-05-10T09:50:43;15.20;99.90
24162;DHT22;12318;51.262;7.066;2023-05-10T09:53:24;14.80;99.90
24162;DHT22;12318;51.262;7.066;2023-05-10T09:55:53;14.60;99.90
24162;DHT22;12318;51.262;7.066;2023-05-10T09:58:19;14.60;99.90
24162;DHT22;12318;51.262;7.066;2023-05-10T10:00:45;14.60;99.90
24162;DHT22;12318;51.262;7.066;2023-05-10T10:03:20;14.50;99.90
24162;DHT22;12318;51.262;7.066;2023-05-10T10:05:47;14.20;99.90
24162;DHT22;12318;51.262;7.066;2023-05-10T10:08:14;14.20;99.90
24162;DHT22;12318;51.262;7.066;2023-05-10T10:10:40;14.40;99.90
24162;DHT22;12318;51.262;7.066;2023-05-10T10:13:07;14.60;99.90
24162;DHT22;12318;51.262;7.066;2023-05-10T10:15:34;14.40;99.90
24162;DHT22;12318;51.262;7.066;2023-05-10T10:18:00;14.30;99.90
24162;DHT22;12318;51.262;7.066;2023-05-10T10:20:28;14.20;99.90
24162;DHT22;12318;51.262;7.066;2023-05-10T10:22:53;14.10;99.90
24162;DHT22;12318;51.262;7.066;2023-05-10T10:25:20;14.10;99.90
24162;DHT22;12318;51.262;7.066;2023-05-10T10:35:34;14.40;99.90
24162;DHT22;12318;51.262;7.066;2023-05-10T10:38:00;14.40;99.90
24162;DHT22;12318;51.262;7.066;2023-05-10T10:40:31;14.50;99.90
24162;DHT22;12318;51.262;7.066;2023-05-10T10:42:58;14.60;99.90
24162;DHT22;12318;51.262;7.066;2023-05-10T10:45:43;14.70;99.90
24162;DHT22;12318;51.262;7.066;2023-05-10T10:48:22;14.50;99.90
24162;DHT22;12318;51.262;7.066;2023-05-10T10:50:56;14.50;99.90
24162;DHT22;12318;51.262;7.066;2023-05-10T10:53:22;14.70;99.90
24162;DHT22;12318;51.262;7.066;2023-05-10T10:55:48;14.70;99.90
24162;DHT22;12318;51.262;7.066;2023-05-10T10:58:34;14.60;99.90
24162;DHT22;12318;51.262;7.066;2023-05-10T11:01:20;14.50;99.90
24162;DHT22;12318;51.262;7.066;2023-05-10T11:06:35;14.50;99.90
24162;DHT22;12318;51.262;7.066;2023-05-10T11:09:11;14.40;99.90
24162;DHT22;12318;51.262;7.066;2023-05-10T11:11:50;14.30;99.90
24162;DHT22;12318;51.262;7.066;2023-05-10T11:14:22;14.40;99.90
24162;DHT22;12318;51.262;7.066;2023-05-10T11:16:48;14.70;99.90
24162;DHT22;12318;51.262;7.066;2023-05-10T11:19:17;14.80;99.90
24162;DHT22;12318;51.262;7.066;2023-05-10T11:21:50;14.80;99.90
24162;DHT22;12318;51.262;7.066;2023-05-10T11:24:22;14.70;99.90
24162;DHT22;12318;51.262;7.066;2023-05-10T11:26:52;14.80;99.90
24162;DHT22;12318;51.262;7.066;2023-05-10T11:29:21;14.60;99.90
24162;DHT22;12318;51.262;7.066;2023-05-10T11:31:53;14.70;99.90
24162;DHT22;12318;51.262;7.066;2023-05-10T11:34:26;14.60;99.90
24162;DHT22;12318;51.262;7.066;2023-05-10T11:36:54;14.90;99.90
24162;DHT22;12318;51.262;7.066;2023-05-10T11:39:20;15.10;99.90
24162;DHT22;12318;51.262;7.066;2023-05-10T11:41:49;15.20;99.90
24162;DHT22;12318;51.262;7.066;2023-05-10T11:44:15;15.10;99.90
24162;DHT22;12318;51.262;7.066;2023-05-10T11:46:41;15.20;99.90
24162;DHT22;12318;51.262;7.066;2023-05-10T11:49:07;15.20;99.90
24162;DHT22;12318;51.262;7.066;2023-05-10T11:51:36;15.30;99.90
24162;DHT22;12318;51.262;7.066;2023-05-10T11:54:08;15.40;99.90
24162;DHT22;12318;51.262;7.066;2023-05-10T11:56:34;15.50;99.90
24162;DHT22;12318;51.262;7.066;2023-05-10T11:59:00;15.40;99.90
24162;DHT22;12318;51.262;7.066;2023-05-10T12:01:28;15.30;99.90
24162;DHT22;12318;51.262;7.066;2023-05-10T12:03:57;15.30;99.90
24162;DHT22;12318;51.262;7.066;2023-05-10T12:06:26;15.10;99.90
24162;DHT22;12318;51.262;7.066;2023-05-10T12:08:52;14.90;99.90
24162;DHT22;12318;51.262;7.066;2023-05-10T12:11:19;14.80;99.90
24162;DHT22;12318;51.262;7.066;2023-05-10T12:13:46;14.70;99.90
24162;DHT22;12318;51.262;7.066;2023-05-10T12:16:13;14.80;99.90
24162;DHT22;12318;51.262;7.066;2023-05-10T12:18:40;14.70;99.90
24162;DHT22;12318;51.262;7.066;2023-05-10T12:21:12;14.80;99.90
24162;DHT22;12318;51.262;7.066;2023-05-10T12:23:39;14.90;99.90
24162;DHT22;12318;51.262;7.066;2023-05-10T12:26:05;15.00;99.90
24162;DHT22;12318;51.262;7.066;2023-05-10T12:28:32;15.10;99.90
24162;DHT22;12318;51.262;7.066;2023-05-10T12:30:59;15.10;99.90
24162;DHT22;12318;51.262;7.066;2023-05-10T12:33:43;15.40;99.90
24162;DHT22;12318;51.262;7.066;2023-05-10T12:36:15;15.50;99.90
24162;DHT22;12318;51.262;7.066;2023-05-10T12:38:43;15.50;99.90
24162;DHT22;12318;51.262;7.066;2023-05-10T12:41:10;15.50;99.90
24162;DHT22;12318;51.262;7.066;2023-05-10T12:43:37;15.20;99.90
24162;DHT22;12318;51.262;7.066;2023-05-10T12:46:10;15.30;99.90
24162;DHT22;12318;51.262;7.066;2023-05-10T12:48:38;15.20;99.90
24162;DHT22;12318;51.262;7.066;2023-05-10T12:51:08;15.00;99.90
24162;DHT22;12318;51.262;7.066;2023-05-10T12:53:47;14.90;99.90
24162;DHT22;12318;51.262;7.066;2023-05-10T12:56:13;14.90;99.90
24162;DHT22;12318;51.262;7.066;2023-05-10T12:58:39;15.00;99.90
24162;DHT22;12318;51.262;7.066;2023-05-10T13:01:05;15.30;99.90
24162;DHT22;12318;51.262;7.066;2023-05-10T13:03:38;15.30;99.90
24162;DHT22;12318;51.262;7.066;2023-05-10T13:06:04;15.50;99.90
24162;DHT22;12318;51.262;7.066;2023-05-10T13:08:40;15.70;99.90
24162;DHT22;12318;51.262;7.066;2023-05-10T13:11:06;15.80;99.90
24162;DHT22;12318;51.262;7.066;2023-05-10T13:13:33;15.80;99.90
24162;DHT22;12318;51.262;7.066;2023-05-10T13:15:58;16.20;99.90
24162;DHT22;12318;51.262;7.066;2023-05-10T13:18:24;16.30;99.90
24162;DHT22;12318;51.262;7.066;2023-05-10T13:20:51;16.40;99.90
24162;DHT22;12318;51.262;7.066;2023-05-10T13:23:17;16.30;99.90
24162;DHT22;12318;51.262;7.066;2023-05-10T13:25:43;16.40;99.90
24162;DHT22;12318;51.262;7.066;2023-05-10T13:28:19;16.30;99.90
24162;DHT22;12318;51.262;7.066;2023-05-10T13:30:45;16.10;99.90
24162;DHT22;12318;51.262;7.066;2023-05-10T13:33:11;16.20;99.90
24162;DHT22;12318;51.262;7.066;2023-05-10T13:35:42;16.20;99.90
24162;DHT22;12318;51.262;7.066;2023-05-10T13:38:10;16.30;99.90
24162;DHT22;12318;51.262;7.066;2023-05-10T13:40:39;16.20;99.90
24162;DHT22;12318;51.262;7.066;2023-05-10T13:43:04;16.10;99.90
24162;DHT22;12318;51.262;7.066;2023-05-10T13:45:30;15.90;99.90
24162;DHT22;12318;51.262;7.066;2023-05-10T13:47:56;15.90;99.90
24162;DHT22;12318;51.262;7.066;2023-05-10T13:50:22;15.80;99.90
24162;DHT22;12318;51.262;7.066;2023-05-10T13:52:48;15.80;99.90
24162;DHT22;12318;51.262;7.066;2023-05-10T13:55:14;15.80;99.90
24162;DHT22;12318;51.262;7.066;2023-05-10T13:57:39;16.00;99.90
24162;DHT22;12318;51.262;7.066;2023-05-10T14:03:28;15.80;99.90
24162;DHT22;12318;51.262;7.066;2023-05-10T14:05:53;15.40;99.90
24162;DHT22;12318;51.262;7.066;2023-05-10T14:08:19;15.50;99.90
24162;DHT22;12318;51.262;7.066;2023-05-10T14:10:45;15.50;99.90
24162;DHT22;12318;51.262;7.066;2023-05-10T14:13:11;15.50;99.90
24162;DHT22;12318;51.262;7.066;2023-05-10T14:15:37;15.50;99.90
24162;DHT22;12318;51.262;7.066;2023-05-10T14:18:03;15.40;99.90
24162;DHT22;12318;51.262;7.066;2023-05-10T14:20:29;15.50;99.90
24162;DHT22;12318;51.262;7.066;2023-05-10T14:22:55;15.40;99.90
24162;DHT22;12318;51.262;7.066;2023-05-10T14:25:21;15.70;99.90
24162;DHT22;12318;51.262;7.066;2023-05-10T14:27:46;15.90;99.90
24162;DHT22;12318;51.262;7.066;2023-05-10T14:30:12;16.10;99.90
24162;DHT22;12318;51.262;7.066;2023-05-10T14:32:38;16.00;99.90
24162;DHT22;12318;51.262;7.066;2023-05-10T14:35:05;15.80;99.90
24162;DHT22;12318;51.262;7.066;2023-05-10T14:37:31;15.80;99.90
24162;DHT22;12318;51.262;7.066;2023-05-10T14:39:57;16.20;99.90
24162;DHT22;12318;51.262;7.066;2023-05-10T14:42:23;16.10;99.90
24162;DHT22;12318;51.262;7.066;2023-05-10T14:44:49;16.10;99.90
24162;DHT22;12318;51.262;7.066;2023-05-10T14:47:15;16.20;99.90
24162;DHT22;12318;51.262;7.066;2023-05-10T14:49:40;16.40;99.90
24162;DHT22;12318;51.262;7.066;2023-05-10T14:52:06;16.30;99.90
24162;DHT22;12318;51.262;7.066;2023-05-10T14:54:32;16.30;99.90
24162;DHT22;12318;51.262;7.066;2023-05-10T14:57:01;16.50;99.90
24162;DHT22;12318;51.262;7.066;2023-05-10T14:59:26;16.60;99.90
24162;DHT22;12318;51.262;7.066;2023-05-10T15:01:52;16.70;99.90
24162;DHT22;12318;51.262;7.066;2023-05-10T15:04:18;16.60;99.90
24162;DHT22;12318;51.262;7.066;2023-05-10T15:06:44;16.80;99.90
24162;DHT22;12318;51.262;7.066;2023-05-10T15:09:10;16.60;99.90
24162;DHT22;12318;51.262;7.066;2023-05-10T15:11:36;16.80;99.90
24162;DHT22;12318;51.262;7.066;2023-05-10T15:14:02;17.10;99.90
24162;DHT22;12318;51.262;7.066;2023-05-10T15:16:27;16.90;99.90
24162;DHT22;12318;51.262;7.066;2023-05-10T15:18:53;16.80;99.90
24162;DHT22;12318;51.262;7.066;2023-05-10T15:21:19;16.40;99.90
24162;DHT22;12318;51.262;7.066;2023-05-10T15:23:44;16.50;99.90
24162;DHT22;12318;51.262;7.066;2023-05-10T15:26:10;16.30;99.90
24162;DHT22;12318;51.262;7.066;2023-05-10T15:28:36;16.30;99.90
24162;DHT22;12318;51.262;7.066;2023-05-10T15:31:01;16.00;99.90
24162;DHT22;12318;51.262;7.066;2023-05-10T15:33:28;16.10;99.90
24162;DHT22;12318;51.262;7.066;2023-05-10T15:35:54;16.10;99.90
24162;DHT22;12318;51.262;7.066;2023-05-10T15:38:20;16.20;99.90
24162;DHT22;12318;51.262;7.066;2023-05-10T15:40:45;16.40;99.90
24162;DHT22;12318;51.262;7.066;2023-05-10T15:43:11;16.20;99.90
24162;DHT22;12318;51.262;7.066;2023-05-10T15:45:37;16.10;99.90
24162;DHT22;12318;51.262;7.066;2023-05-10T15:48:02;15.90;99.90
24162;DHT22;12318;51.262;7.066;2023-05-10T15:50:28;15.90;99.90
24162;DHT22;12318;51.262;7.066;2023-05-10T15:52:54;16.00;99.90
24162;DHT22;12318;51.262;7.066;2023-05-10T15:55:20;16.10;99.90
24162;DHT22;12318;51.262;7.066;2023-05-10T15:57:45;15.80;99.90
24162;DHT22;12318;51.262;7.066;2023-05-10T16:00:12;15.80;99.90
24162;DHT22;12318;51.262;7.066;2023-05-10T16:02:39;15.90;99.90
24162;DHT22;12318;51.262;7.066;2023-05-10T16:05:05;16.10;99.90
24162;DHT22;12318;51.262;7.066;2023-05-10T16:07:32;16.10;99.90
24162;DHT22;12318;51.262;7.066;2023-05-10T16:09:58;16.10;99.90
24162;DHT22;12318;51.262;7.066;2023-05-10T16:12:30;16.10;99.90
24162;DHT22;12318;51.262;7.066;2023-05-10T16:14:56;16.20;99.90
24162;DHT22;12318;51.262;7.066;2023-05-10T16:17:22;16.30;99.90
24162;DHT22;12318;51.262;7.066;2023-05-10T16:19:51;16.40;99.90
24162;DHT22;12318;51.262;7.066;2023-05-10T16:22:19;16.10;99.90
24162;DHT22;12318;51.262;7.066;2023-05-10T16:24:46;16.10;99.90
24162;DHT22;12318;51.262;7.066;2023-05-10T16:27:12;16.30;99.90